Time;durP1;ratioP1;P1;durP2;ratioP2;P2;SDS_P1;SDS_P2;PMS_P1;PMS_P2;Temp;Humidity;BMP_temperature;BMP_pressure;BME280_temperature;BME280_humidity;BME280_pressure;Samples;Min_cycle;Max_cycle;Signal;HPM_P1;HPM_P2
2021/08/04 00:01:03;;;;;;;;;;;23.70;72.00;;;;;;5187167;28;19932;-84
2021/08/04 00:03:36;;;;;;;;;;;23.70;72.00;;;;;;5199409;28;20383;-84
2021/08/04 00:06:08;;;;;;;;;;;23.70;72.10;;;;;;5167866;28;19937;-83
2021/08/04 00:08:40;;;;;;;;;;;23.70;72.00;;;;;;5185100;28;19988;-84
2021/08/04 00:11:13;;;;;;;;;;;23.70;72.10;;;;;;5154682;28;19933;-85
2021/08/04 00:13:45;;;;;;;;;;;23.70;72.10;;;;;;5184885;28;20430;-83
2021/08/04 00:16:17;;;;;;;;;;;23.70;72.10;;;;;;5168501;28;20004;-84
2021/08/04 00:18:50;;;;;;;;;;;23.70;72.10;;;;;;5185103;28;20323;-84
2021/08/04 00:21:23;;;;;;;;;;;23.70;72.00;;;;;;5182563;28;20455;-85
2021/08/04 00:23:55;;;;;;;;;;;23.70;72.10;;;;;;5188357;28;20367;-85
2021/08/04 00:26:27;;;;;;;;;;;23.70;72.00;;;;;;5184426;28;19932;-85
2021/08/04 00:29:00;;;;;;;;;;;23.70;72.00;;;;;;5184668;28;20299;-85
2021/08/04 00:31:32;;;;;;;;;;;23.70;72.00;;;;;;5186594;28;20398;-84
2021/08/04 00:34:07;;;;;;;;;;;23.70;72.00;;;;;;5202596;28;20378;-85
2021/08/04 00:36:40;;;;;;;;;;;23.70;72.00;;;;;;5188297;28;19952;-84
2021/08/04 00:39:12;;;;;;;;;;;23.70;72.00;;;;;;5164587;28;19929;-84
2021/08/04 00:41:45;;;;;;;;;;;23.70;72.00;;;;;;5187983;28;19940;-85
2021/08/04 00:44:17;;;;;;;;;;;23.70;72.10;;;;;;5186538;28;19929;-84
2021/08/04 00:46:50;;;;;;;;;;;23.70;72.10;;;;;;5185868;28;19945;-83
2021/08/04 00:49:22;;;;;;;;;;;23.70;72.10;;;;;;5189957;28;20419;-84
2021/08/04 00:51:55;;;;;;;;;;;23.70;72.10;;;;;;5193778;28;19936;-85
2021/08/04 00:54:28;;;;;;;;;;;23.70;72.10;;;;;;5187941;28;20000;-85
2021/08/04 00:57:00;;;;;;;;;;;23.70;72.10;;;;;;5189464;28;19929;-85
2021/08/04 00:59:34;;;;;;;;;;;23.70;72.10;;;;;;5164900;28;19933;-85
2021/08/04 01:02:14;;;;;;;;;;;23.70;72.10;;;;;;5173959;28;19936;-84
2021/08/04 01:04:56;;;;;;;;;;;23.70;72.10;;;;;;5201539;28;19933;-84
2021/08/04 01:07:33;;;;;;;;;;;23.70;72.10;;;;;;5172231;28;19925;-84
2021/08/04 01:10:06;;;;;;;;;;;23.70;72.10;;;;;;5171306;28;20403;-85
2021/08/04 01:12:58;;;;;;;;;;;23.70;72.10;;;;;;5187349;28;19956;-86
2021/08/04 01:15:33;;;;;;;;;;;23.70;72.10;;;;;;5200550;28;20505;-85
2021/08/04 01:18:07;;;;;;;;;;;23.60;72.00;;;;;;5199653;28;19926;-85
2021/08/04 01:20:41;;;;;;;;;;;23.70;72.10;;;;;;5191676;28;19936;-86
2021/08/04 01:23:25;;;;;;;;;;;23.60;72.00;;;;;;5169822;28;19952;-83
2021/08/04 01:26:00;;;;;;;;;;;23.70;72.10;;;;;;5201283;28;20386;-84
2021/08/04 01:28:40;;;;;;;;;;;23.60;72.00;;;;;;5187032;28;19926;-84
2021/08/04 01:31:16;;;;;;;;;;;23.70;72.10;;;;;;5190642;28;19933;-85
2021/08/04 01:33:49;;;;;;;;;;;23.70;72.10;;;;;;5186735;28;19933;-85
2021/08/04 01:36:22;;;;;;;;;;;23.70;72.10;;;;;;5187658;28;19929;-86
2021/08/04 01:38:55;;;;;;;;;;;23.70;72.10;;;;;;5187026;28;19940;-84
2021/08/04 01:41:30;;;;;;;;;;;23.70;72.10;;;;;;5184999;28;20402;-86
2021/08/04 01:44:04;;;;;;;;;;;23.60;72.00;;;;;;5185886;28;19925;-84
2021/08/04 01:46:38;;;;;;;;;;;23.70;72.10;;;;;;5187969;28;20379;-85
2021/08/04 01:49:12;;;;;;;;;;;23.70;72.10;;;;;;5187671;28;19926;-85
2021/08/04 01:51:47;;;;;;;;;;;23.70;72.10;;;;;;5169368;28;19925;-86
2021/08/04 01:54:19;;;;;;;;;;;23.70;72.10;;;;;;5184509;28;19934;-85
2021/08/04 01:56:55;;;;;;;;;;;23.60;72.00;;;;;;5184794;28;19929;-85
2021/08/04 01:59:27;;;;;;;;;;;23.70;72.10;;;;;;5184115;28;20309;-85
2021/08/04 02:02:19;;;;;;;;;;;23.70;72.10;;;;;;5168513;28;20455;-86
2021/08/04 02:04:52;;;;;;;;;;;23.60;72.00;;;;;;5162921;28;19933;-85
2021/08/04 02:07:25;;;;;;;;;;;23.60;72.00;;;;;;5170319;28;19929;-87
2021/08/04 02:10:00;;;;;;;;;;;23.70;72.10;;;;;;5165385;28;19933;-84
2021/08/04 02:12:35;;;;;;;;;;;23.70;72.10;;;;;;5184734;28;20512;-84
2021/08/04 02:15:10;;;;;;;;;;;23.60;72.00;;;;;;5191123;28;19925;-85
2021/08/04 02:17:49;;;;;;;;;;;23.70;72.10;;;;;;5198787;28;19936;-85
2021/08/04 02:20:24;;;;;;;;;;;23.60;72.10;;;;;;5162313;28;19925;-84
2021/08/04 02:22:59;;;;;;;;;;;23.60;72.00;;;;;;5197886;28;19926;-85
2021/08/04 02:25:47;;;;;;;;;;;23.60;72.10;;;;;;5180666;28;19925;-85
2021/08/04 02:28:21;;;;;;;;;;;23.60;72.10;;;;;;5171166;28;19933;-85
2021/08/04 02:30:55;;;;;;;;;;;23.60;72.00;;;;;;5172603;28;20835;-85
2021/08/04 02:33:29;;;;;;;;;;;23.60;72.00;;;;;;5171107;28;19964;-85
2021/08/04 02:36:02;;;;;;;;;;;23.70;72.10;;;;;;5187561;28;19932;-85
2021/08/04 02:38:36;;;;;;;;;;;23.60;72.10;;;;;;5166848;28;19933;-84
2021/08/04 02:41:09;;;;;;;;;;;23.60;72.10;;;;;;5169547;28;19925;-85
2021/08/04 02:43:41;;;;;;;;;;;23.60;72.10;;;;;;5200927;28;20335;-84
2021/08/04 02:46:13;;;;;;;;;;;23.60;72.10;;;;;;5171372;28;19937;-83
2021/08/04 02:48:46;;;;;;;;;;;23.60;72.10;;;;;;5186107;28;19949;-84
2021/08/04 02:51:20;;;;;;;;;;;23.60;72.00;;;;;;5187143;28;20112;-83
2021/08/04 02:53:56;;;;;;;;;;;23.60;72.00;;;;;;5179667;28;19936;-83
2021/08/04 02:56:29;;;;;;;;;;;23.60;72.00;;;;;;5181658;28;19926;-85
2021/08/04 02:59:01;;;;;;;;;;;23.60;72.00;;;;;;5168454;28;20318;-84
2021/08/04 03:01:34;;;;;;;;;;;23.60;72.00;;;;;;5186248;28;20405;-84
2021/08/04 03:04:07;;;;;;;;;;;23.60;72.00;;;;;;5183711;28;20462;-84
2021/08/04 03:06:39;;;;;;;;;;;23.60;72.00;;;;;;5167300;28;19929;-84
2021/08/04 03:09:11;;;;;;;;;;;23.60;72.10;;;;;;5197691;28;19925;-84
2021/08/04 03:11:44;;;;;;;;;;;23.60;72.10;;;;;;5165309;28;20296;-84
2021/08/04 03:14:17;;;;;;;;;;;23.60;72.10;;;;;;5185655;28;19929;-84
2021/08/04 03:16:49;;;;;;;;;;;23.60;72.10;;;;;;5182472;28;20314;-84
2021/08/04 03:19:22;;;;;;;;;;;23.60;72.10;;;;;;5185801;28;20936;-84
2021/08/04 03:21:54;;;;;;;;;;;23.60;72.10;;;;;;5170495;28;19925;-84
2021/08/04 03:24:27;;;;;;;;;;;23.60;72.10;;;;;;5173467;28;19926;-85
2021/08/04 03:26:59;;;;;;;;;;;23.60;72.10;;;;;;5182801;28;19926;-85
2021/08/04 03:29:31;;;;;;;;;;;23.60;72.00;;;;;;5180495;28;19929;-85
2021/08/04 03:32:04;;;;;;;;;;;23.60;72.10;;;;;;5185563;28;19925;-84
2021/08/04 03:34:37;;;;;;;;;;;23.60;72.10;;;;;;5186897;28;19925;-84
2021/08/04 03:37:09;;;;;;;;;;;23.60;72.00;;;;;;5184699;28;19925;-86
2021/08/04 03:39:41;;;;;;;;;;;23.60;72.00;;;;;;5183067;28;19929;-83
2021/08/04 03:42:16;;;;;;;;;;;23.60;72.00;;;;;;5181687;28;19936;-84
2021/08/04 03:44:48;;;;;;;;;;;23.60;72.00;;;;;;5187343;28;20013;-84
2021/08/04 03:47:21;;;;;;;;;;;23.60;72.00;;;;;;5154970;28;19936;-85
2021/08/04 03:49:53;;;;;;;;;;;23.60;72.00;;;;;;5187270;28;20389;-84
2021/08/04 03:52:25;;;;;;;;;;;23.60;72.00;;;;;;5188266;28;19940;-85
2021/08/04 03:54:58;;;;;;;;;;;23.60;72.10;;;;;;5187144;28;19933;-85
2021/08/04 03:57:30;;;;;;;;;;;23.60;72.00;;;;;;5182345;28;20406;-84
2021/08/04 04:00:03;;;;;;;;;;;23.60;72.10;;;;;;5181205;28;19945;-84
2021/08/04 04:02:43;;;;;;;;;;;23.60;72.10;;;;;;5186247;28;19930;-84
2021/08/04 04:05:16;;;;;;;;;;;23.60;72.10;;;;;;5167225;28;19934;-85
2021/08/04 04:07:48;;;;;;;;;;;23.60;72.10;;;;;;5158302;28;19940;-85
2021/08/04 04:10:22;;;;;;;;;;;23.60;72.10;;;;;;5190086;28;20303;-84
2021/08/04 04:12:55;;;;;;;;;;;23.60;72.10;;;;;;5190713;28;19929;-84
2021/08/04 04:15:27;;;;;;;;;;;23.60;72.10;;;;;;5207225;28;19987;-85
2021/08/04 04:18:00;;;;;;;;;;;23.60;72.10;;;;;;5188856;28;19925;-84
2021/08/04 04:20:32;;;;;;;;;;;23.60;72.00;;;;;;5192331;28;19929;-83
2021/08/04 04:23:05;;;;;;;;;;;23.60;72.10;;;;;;5190282;28;19926;-87
2021/08/04 04:25:37;;;;;;;;;;;23.60;72.00;;;;;;5186937;28;19937;-85
2021/08/04 04:28:09;;;;;;;;;;;23.60;72.10;;;;;;5184807;28;19940;-86
2021/08/04 04:30:42;;;;;;;;;;;23.50;72.00;;;;;;5189857;28;19948;-85
2021/08/04 04:33:14;;;;;;;;;;;23.60;72.00;;;;;;5182648;28;19930;-86
2021/08/04 04:35:47;;;;;;;;;;;23.60;72.10;;;;;;5173176;28;20315;-88
2021/08/04 04:38:19;;;;;;;;;;;23.60;72.20;;;;;;5207997;28;19951;-89
2021/08/04 04:40:55;;;;;;;;;;;23.60;72.20;;;;;;4962444;28;10000398;-88
2021/08/04 04:43:27;;;;;;;;;;;23.60;72.10;;;;;;4826718;28;9999626;-86
2021/08/04 04:46:00;;;;;;;;;;;23.60;72.00;;;;;;5184020;28;19925;-89
2021/08/04 04:48:33;;;;;;;;;;;23.60;72.10;;;;;;5167653;28;19937;-87
2021/08/04 04:51:06;;;;;;;;;;;23.60;72.10;;;;;;5176111;28;20567;-85
2021/08/04 04:53:38;;;;;;;;;;;23.50;72.00;;;;;;5170503;28;19936;-86
2021/08/04 04:56:10;;;;;;;;;;;23.50;72.00;;;;;;5168964;28;20403;-89
2021/08/04 04:58:42;;;;;;;;;;;23.60;72.00;;;;;;5187397;28;19925;-85
2021/08/04 05:01:15;;;;;;;;;;;23.60;72.00;;;;;;5196806;28;19936;-86
2021/08/04 05:03:48;;;;;;;;;;;23.60;72.00;;;;;;5167455;28;19933;-87
2021/08/04 05:06:20;;;;;;;;;;;23.60;72.00;;;;;;5186187;28;20283;-86
2021/08/04 05:08:52;;;;;;;;;;;23.60;72.00;;;;;;5187179;28;19929;-86
2021/08/04 05:11:25;;;;;;;;;;;23.60;72.00;;;;;;5187094;28;19932;-87
2021/08/04 05:13:57;;;;;;;;;;;23.60;72.00;;;;;;5181820;28;21863;-86
2021/08/04 05:16:30;;;;;;;;;;;23.60;72.00;;;;;;5184876;28;19929;-86
2021/08/04 05:19:02;;;;;;;;;;;23.60;72.00;;;;;;5157398;28;19930;-86
2021/08/04 05:21:34;;;;;;;;;;;23.60;72.00;;;;;;5178994;28;20406;-84
2021/08/04 05:24:07;;;;;;;;;;;23.60;72.00;;;;;;5149724;28;19940;-88
2021/08/04 05:26:39;;;;;;;;;;;23.60;72.00;;;;;;5179815;28;19932;-87
2021/08/04 05:29:12;;;;;;;;;;;23.60;72.00;;;;;;5170635;28;19929;-86
2021/08/04 05:31:44;;;;;;;;;;;23.60;72.00;;;;;;5149127;28;19936;-89
2021/08/04 05:34:17;;;;;;;;;;;23.50;71.90;;;;;;5182072;28;20426;-86
2021/08/04 05:36:49;;;;;;;;;;;23.60;72.00;;;;;;5186800;28;20282;-87
2021/08/04 05:39:21;;;;;;;;;;;23.60;72.00;;;;;;5185410;28;19929;-89
2021/08/04 05:41:54;;;;;;;;;;;23.60;72.00;;;;;;5169430;28;20290;-89
2021/08/04 05:44:26;;;;;;;;;;;23.50;71.90;;;;;;5195562;28;19929;-89
2021/08/04 05:46:58;;;;;;;;;;;23.50;71.90;;;;;;5177711;28;20036;-85
2021/08/04 05:49:31;;;;;;;;;;;23.60;72.00;;;;;;5164722;28;19929;-87
2021/08/04 05:52:03;;;;;;;;;;;23.50;71.90;;;;;;5179422;28;19929;-89
2021/08/04 05:54:35;;;;;;;;;;;23.60;72.00;;;;;;5181617;28;19925;-87
2021/08/04 05:57:08;;;;;;;;;;;23.50;71.90;;;;;;5177586;28;19933;-87
2021/08/04 05:59:40;;;;;;;;;;;23.60;72.00;;;;;;5197141;28;20199;-84
2021/08/04 06:02:13;;;;;;;;;;;23.60;72.00;;;;;;5180529;28;19941;-86
2021/08/04 06:04:45;;;;;;;;;;;23.50;71.90;;;;;;5192829;28;19929;-89
2021/08/04 06:07:18;;;;;;;;;;;23.50;71.90;;;;;;5195192;28;19940;-87
2021/08/04 06:09:50;;;;;;;;;;;23.60;72.00;;;;;;5157545;28;19930;-85
2021/08/04 06:12:26;;;;;;;;;;;23.60;72.00;;;;;;5152499;28;19929;-89
2021/08/04 06:14:58;;;;;;;;;;;23.60;72.00;;;;;;5169120;28;19932;-88
2021/08/04 06:17:31;;;;;;;;;;;23.60;72.00;;;;;;5178752;28;19929;-86
2021/08/04 06:20:05;;;;;;;;;;;23.50;71.90;;;;;;5155374;28;19930;-84
2021/08/04 06:22:37;;;;;;;;;;;23.60;72.00;;;;;;5187181;28;19933;-85
2021/08/04 06:25:10;;;;;;;;;;;23.60;72.00;;;;;;5176536;28;20444;-88
2021/08/04 06:27:42;;;;;;;;;;;23.60;72.00;;;;;;5195680;28;19925;-88
2021/08/04 06:30:14;;;;;;;;;;;23.60;72.00;;;;;;5185104;28;20295;-85
2021/08/04 06:32:47;;;;;;;;;;;23.50;71.90;;;;;;5197063;28;19930;-84
2021/08/04 06:35:19;;;;;;;;;;;23.60;72.00;;;;;;5156001;28;19940;-83
2021/08/04 06:37:52;;;;;;;;;;;23.60;72.00;;;;;;5178014;28;19980;-87
2021/08/04 06:40:26;;;;;;;;;;;23.60;72.00;;;;;;5173471;28;19925;-86
2021/08/04 06:42:59;;;;;;;;;;;23.60;72.00;;;;;;5153788;28;19929;-86
2021/08/04 06:45:31;;;;;;;;;;;23.60;72.00;;;;;;5161552;28;19936;-88
2021/08/04 06:48:07;;;;;;;;;;;23.60;72.00;;;;;;5178755;28;19940;-85
2021/08/04 06:50:40;;;;;;;;;;;23.60;72.00;;;;;;5180945;28;19930;-85
2021/08/04 06:53:12;;;;;;;;;;;23.60;72.00;;;;;;5179970;28;19936;-88
2021/08/04 06:55:45;;;;;;;;;;;23.60;72.00;;;;;;5160498;28;19929;-86
2021/08/04 06:58:17;;;;;;;;;;;23.60;72.00;;;;;;5176912;28;19940;-87
2021/08/04 07:00:49;;;;;;;;;;;23.60;72.00;;;;;;5161248;28;20399;-85
2021/08/04 07:03:22;;;;;;;;;;;23.60;72.00;;;;;;5180152;28;19929;-86
2021/08/04 07:05:55;;;;;;;;;;;23.60;72.00;;;;;;5175131;28;19925;-86
2021/08/04 07:08:27;;;;;;;;;;;23.60;72.00;;;;;;5178946;28;19934;-86
2021/08/04 07:10:59;;;;;;;;;;;23.60;71.90;;;;;;5179356;28;20314;-86
2021/08/04 07:13:31;;;;;;;;;;;23.60;71.90;;;;;;5159062;28;19952;-86
2021/08/04 07:16:04;;;;;;;;;;;23.60;71.90;;;;;;5177817;28;19926;-85
2021/08/04 07:18:36;;;;;;;;;;;23.60;72.00;;;;;;5178588;28;20882;-87
2021/08/04 07:21:08;;;;;;;;;;;23.60;71.90;;;;;;5176224;28;19936;-85
2021/08/04 07:23:45;;;;;;;;;;;23.60;71.90;;;;;;5192932;28;19941;-87
2021/08/04 07:26:18;;;;;;;;;;;23.60;71.90;;;;;;5174564;28;19936;-83
2021/08/04 07:28:50;;;;;;;;;;;23.60;71.90;;;;;;5141229;28;19952;-85
2021/08/04 07:31:23;;;;;;;;;;;23.60;71.90;;;;;;5161422;28;19933;-85
2021/08/04 07:33:56;;;;;;;;;;;23.60;71.90;;;;;;5184977;28;19925;-87
2021/08/04 07:36:28;;;;;;;;;;;23.60;71.90;;;;;;5179500;28;19925;-86
2021/08/04 07:39:01;;;;;;;;;;;23.60;71.80;;;;;;5194702;28;19929;-85
2021/08/04 07:41:33;;;;;;;;;;;23.60;71.80;;;;;;5178896;28;19929;-85
2021/08/04 07:44:05;;;;;;;;;;;23.60;71.80;;;;;;5177069;28;19929;-85
2021/08/04 07:46:48;;;;;;;;;;;23.60;71.80;;;;;;5184164;28;20044;-87
2021/08/04 07:49:21;;;;;;;;;;;23.60;71.80;;;;;;5179998;28;20391;-87
2021/08/04 07:51:53;;;;;;;;;;;23.60;71.80;;;;;;5178837;28;19929;-88
2021/08/04 07:54:26;;;;;;;;;;;23.60;71.70;;;;;;5177107;28;19929;-87
2021/08/04 07:56:59;;;;;;;;;;;23.60;71.80;;;;;;5181543;28;19947;-89
2021/08/04 07:59:31;;;;;;;;;;;23.60;71.70;;;;;;5175390;28;19929;-87
2021/08/04 08:02:04;;;;;;;;;;;23.60;71.70;;;;;;5163318;28;19929;-86
2021/08/04 08:04:36;;;;;;;;;;;23.60;71.60;;;;;;5177763;28;19930;-85
2021/08/04 08:07:09;;;;;;;;;;;23.60;71.60;;;;;;5163085;28;19933;-85
2021/08/04 08:09:43;;;;;;;;;;;23.60;71.60;;;;;;5184635;28;19936;-88
2021/08/04 08:12:15;;;;;;;;;;;23.70;71.70;;;;;;5183237;28;19937;-86
2021/08/04 08:14:47;;;;;;;;;;;23.70;71.60;;;;;;5181686;28;19937;-89
2021/08/04 08:17:19;;;;;;;;;;;23.60;71.60;;;;;;5188119;28;19929;-86
2021/08/04 08:19:52;;;;;;;;;;;23.60;71.60;;;;;;5184219;28;19929;-89
2021/08/04 08:22:24;;;;;;;;;;;23.70;71.60;;;;;;5183264;28;19936;-88
2021/08/04 08:24:56;;;;;;;;;;;23.70;71.60;;;;;;5177241;28;19925;-85
2021/08/04 08:27:29;;;;;;;;;;;23.70;71.60;;;;;;5178751;28;19948;-88
2021/08/04 08:30:01;;;;;;;;;;;23.70;71.60;;;;;;5181804;28;19928;-87
2021/08/04 08:32:35;;;;;;;;;;;23.70;71.60;;;;;;5177755;28;19930;-90
2021/08/04 08:35:08;;;;;;;;;;;23.70;71.50;;;;;;5179720;28;20379;-89
2021/08/04 08:37:40;;;;;;;;;;;23.70;71.60;;;;;;5180686;28;19936;-88
2021/08/04 08:40:14;;;;;;;;;;;23.70;71.60;;;;;;5162633;28;19936;-90
2021/08/04 08:42:46;;;;;;;;;;;23.70;71.60;;;;;;5184127;28;19926;-88
2021/08/04 08:45:19;;;;;;;;;;;23.70;71.50;;;;;;5167070;28;19944;-85
2021/08/04 08:47:51;;;;;;;;;;;23.70;71.60;;;;;;5167821;28;20315;-87
2021/08/04 08:50:27;;;;;;;;;;;23.70;71.50;;;;;;5180088;28;19932;-88
2021/08/04 08:52:59;;;;;;;;;;;23.70;71.50;;;;;;5185184;28;19929;-88
2021/08/04 08:55:33;;;;;;;;;;;23.70;71.60;;;;;;5188103;28;20124;-84
2021/08/04 08:58:05;;;;;;;;;;;23.70;71.60;;;;;;5187636;28;19929;-91
2021/08/04 09:00:38;;;;;;;;;;;23.70;71.50;;;;;;5168319;28;20410;-87
2021/08/04 09:03:11;;;;;;;;;;;23.70;71.50;;;;;;5169243;28;19941;-87
2021/08/04 09:05:50;;;;;;;;;;;23.70;71.50;;;;;;5184199;28;20276;-87
2021/08/04 09:08:24;;;;;;;;;;;23.70;71.50;;;;;;5184007;28;19940;-87
2021/08/04 09:10:57;;;;;;;;;;;23.70;71.50;;;;;;5174952;28;19929;-90
2021/08/04 09:13:33;;;;;;;;;;;23.70;71.60;;;;;;5186322;28;19933;-89
2021/08/04 09:16:11;;;;;;;;;;;23.70;71.50;;;;;;5170912;28;19933;-88
2021/08/04 09:18:48;;;;;;;;;;;23.70;71.60;;;;;;5187019;28;19925;-91
2021/08/04 09:21:20;;;;;;;;;;;23.70;71.60;;;;;;5188984;28;20505;-87
2021/08/04 09:23:54;;;;;;;;;;;23.70;71.60;;;;;;5187099;28;19931;-91
2021/08/04 09:26:27;;;;;;;;;;;23.70;71.50;;;;;;5166039;28;19926;-88
2021/08/04 09:29:00;;;;;;;;;;;23.70;71.60;;;;;;5163073;28;19933;-87
2021/08/04 09:31:43;;;;;;;;;;;23.70;71.60;;;;;;5167893;28;19930;-89
2021/08/04 09:34:25;;;;;;;;;;;23.70;71.60;;;;;;5156573;28;19936;-86
2021/08/04 09:37:07;;;;;;;;;;;23.70;71.60;;;;;;5183295;28;19929;-86
2021/08/04 09:39:41;;;;;;;;;;;23.70;71.60;;;;;;5182849;28;19926;-85
2021/08/04 09:42:13;;;;;;;;;;;23.70;71.60;;;;;;5165752;28;20390;-90
2021/08/04 09:44:53;;;;;;;;;;;23.70;71.60;;;;;;5166829;28;19929;-87
2021/08/04 09:47:27;;;;;;;;;;;23.70;71.60;;;;;;5165455;28;20121;-85
2021/08/04 09:50:01;;;;;;;;;;;23.70;71.70;;;;;;5169015;28;19940;-85
2021/08/04 09:52:35;;;;;;;;;;;23.70;71.60;;;;;;5205299;28;19929;-89
2021/08/04 09:55:10;;;;;;;;;;;23.70;71.60;;;;;;5189599;28;19932;-91
2021/08/04 09:57:44;;;;;;;;;;;23.70;71.60;;;;;;5191906;28;20032;-88
2021/08/04 10:00:18;;;;;;;;;;;23.70;71.60;;;;;;5184789;28;19945;-86
2021/08/04 10:02:52;;;;;;;;;;;23.70;71.60;;;;;;5175643;28;19932;-89
2021/08/04 10:05:25;;;;;;;;;;;23.70;71.60;;;;;;5186341;28;19933;-88
2021/08/04 10:08:05;;;;;;;;;;;23.70;71.60;;;;;;5184374;28;19926;-86
2021/08/04 10:10:42;;;;;;;;;;;23.70;71.60;;;;;;5184466;28;20394;-88
2021/08/04 10:13:19;;;;;;;;;;;23.70;71.60;;;;;;5190206;28;19925;-89
2021/08/04 10:16:02;;;;;;;;;;;23.80;71.60;;;;;;5189936;28;19929;-90
2021/08/04 10:18:37;;;;;;;;;;;23.70;71.60;;;;;;5187732;28;19935;-89
2021/08/04 10:21:13;;;;;;;;;;;23.70;71.60;;;;;;5172516;28;20295;-89
2021/08/04 10:23:46;;;;;;;;;;;23.80;71.60;;;;;;5184436;28;19926;-87
2021/08/04 10:26:20;;;;;;;;;;;23.70;71.50;;;;;;5182118;28;20402;-89
2021/08/04 10:28:58;;;;;;;;;;;23.80;71.60;;;;;;5146773;28;19933;-90
2021/08/04 10:31:31;;;;;;;;;;;23.70;71.50;;;;;;5170465;28;25865;-89
2021/08/04 10:34:04;;;;;;;;;;;23.70;71.50;;;;;;5179467;28;20287;-88
2021/08/04 10:36:38;;;;;;;;;;;23.70;71.50;;;;;;5164967;28;20928;-89
2021/08/04 10:39:12;;;;;;;;;;;23.70;71.50;;;;;;5181272;28;19929;-83
2021/08/04 10:42:03;;;;;;;;;;;23.70;71.50;;;;;;5190007;28;19936;-83
2021/08/04 10:44:36;;;;;;;;;;;23.70;71.50;;;;;;5189653;28;19940;-82
2021/08/04 10:47:24;;;;;;;;;;;23.70;71.40;;;;;;5189347;28;19936;-83
2021/08/04 10:50:07;;;;;;;;;;;23.80;71.50;;;;;;5185253;28;19960;-81
2021/08/04 10:52:58;;;;;;;;;;;23.70;71.40;;;;;;5200343;28;19933;-81
2021/08/04 10:55:50;;;;;;;;;;;23.80;71.50;;;;;;5183115;28;19929;-83
2021/08/04 10:58:26;;;;;;;;;;;23.70;71.50;;;;;;5186275;28;19933;-83
2021/08/04 11:01:18;;;;;;;;;;;23.70;71.50;;;;;;5187205;28;19926;-83
2021/08/04 11:03:50;;;;;;;;;;;23.70;71.50;;;;;;5200975;28;19933;-83
2021/08/04 11:06:22;;;;;;;;;;;23.70;71.50;;;;;;5196731;28;20018;-83
2021/08/04 11:09:13;;;;;;;;;;;23.70;71.50;;;;;;5184566;28;19934;-83
2021/08/04 11:11:49;;;;;;;;;;;23.70;71.50;;;;;;5188847;28;20294;-83
2021/08/04 11:14:51;;;;;;;;;;;23.70;71.50;;;;;;5189260;28;19925;-83
2021/08/04 11:17:23;;;;;;;;;;;23.70;71.50;;;;;;5140469;28;19925;-82
2021/08/04 11:20:04;;;;;;;;;;;23.70;71.50;;;;;;5184636;28;19940;-83
2021/08/04 11:22:36;;;;;;;;;;;23.70;71.50;;;;;;5181721;28;19936;-85
2021/08/04 11:25:13;;;;;;;;;;;23.70;71.50;;;;;;5186915;28;19929;-83
2021/08/04 11:27:45;;;;;;;;;;;23.70;71.50;;;;;;5186574;28;19949;-82
2021/08/04 11:30:28;;;;;;;;;;;23.70;71.50;;;;;;5185347;28;19929;-82
2021/08/04 11:33:20;;;;;;;;;;;23.70;71.50;;;;;;5187059;28;20050;-82
2021/08/04 11:35:59;;;;;;;;;;;23.70;71.50;;;;;;5187612;28;19937;-82
2021/08/04 11:38:49;;;;;;;;;;;23.70;71.50;;;;;;4758698;28;10000509;-81
2021/08/04 11:41:25;;;;;;;;;;;23.70;71.40;;;;;;5181638;28;19925;-80
2021/08/04 11:44:12;;;;;;;;;;;23.80;71.50;;;;;;5185441;28;19936;-81
2021/08/04 11:47:06;;;;;;;;;;;23.80;71.40;;;;;;5186925;28;20399;-81
2021/08/04 11:49:47;;;;;;;;;;;23.80;71.40;;;;;;5173872;28;19933;-81
2021/08/04 11:52:24;;;;;;;;;;;23.80;71.40;;;;;;5180762;28;19925;-83
2021/08/04 11:55:03;;;;;;;;;;;23.80;71.40;;;;;;5182491;28;19929;-80
2021/08/04 11:57:43;;;;;;;;;;;23.80;71.30;;;;;;5185474;28;19932;-81
2021/08/04 12:00:16;;;;;;;;;;;23.80;71.30;;;;;;5186529;28;20391;-82
2021/08/04 12:02:48;;;;;;;;;;;23.80;71.30;;;;;;5182875;28;20304;-83
2021/08/04 12:05:21;;;;;;;;;;;23.80;71.30;;;;;;5173963;28;20410;-82
2021/08/04 12:07:54;;;;;;;;;;;23.80;71.30;;;;;;5184383;28;19925;-83
2021/08/04 12:10:27;;;;;;;;;;;23.80;71.20;;;;;;5183018;28;19929;-82
2021/08/04 12:12:59;;;;;;;;;;;23.80;71.20;;;;;;5185532;28;19936;-82
2021/08/04 12:15:31;;;;;;;;;;;23.80;71.20;;;;;;5185702;28;19941;-81
2021/08/04 12:18:04;;;;;;;;;;;23.80;71.30;;;;;;5186761;28;19936;-82
2021/08/04 12:20:37;;;;;;;;;;;23.80;71.30;;;;;;5178088;28;20388;-82
2021/08/04 12:23:12;;;;;;;;;;;23.80;71.30;;;;;;5164855;28;19932;-81
2021/08/04 12:25:44;;;;;;;;;;;23.80;71.30;;;;;;5183134;28;19929;-82
2021/08/04 12:28:16;;;;;;;;;;;23.80;71.30;;;;;;5181699;28;19941;-82
2021/08/04 12:30:49;;;;;;;;;;;23.80;71.30;;;;;;5187920;28;19941;-83
2021/08/04 12:33:27;;;;;;;;;;;23.80;71.30;;;;;;5186360;28;19952;-83
2021/08/04 12:36:02;;;;;;;;;;;23.80;71.30;;;;;;5187776;28;19929;-83
2021/08/04 12:38:47;;;;;;;;;;;23.80;71.30;;;;;;5189263;28;19930;-81
2021/08/04 12:41:20;;;;;;;;;;;23.80;71.30;;;;;;5191964;28;19932;-82
2021/08/04 12:43:55;;;;;;;;;;;23.80;71.40;;;;;;5188134;28;19925;-81
2021/08/04 12:46:29;;;;;;;;;;;23.80;71.30;;;;;;5188462;28;19925;-81
2021/08/04 12:49:02;;;;;;;;;;;23.80;71.30;;;;;;5187851;28;19929;-82
2021/08/04 12:51:38;;;;;;;;;;;23.80;71.30;;;;;;5190122;28;19936;-82
2021/08/04 12:54:13;;;;;;;;;;;23.80;71.30;;;;;;5164693;28;19933;-85
2021/08/04 12:56:46;;;;;;;;;;;23.80;71.30;;;;;;5182275;28;20271;-86
2021/08/04 12:59:22;;;;;;;;;;;23.80;71.30;;;;;;5181972;28;19926;-86
2021/08/04 13:02:10;;;;;;;;;;;23.80;71.30;;;;;;5182512;28;19930;-90
2021/08/04 13:05:01;;;;;;;;;;;23.80;71.30;;;;;;4918396;28;10000516;-88
2021/08/04 13:07:41;;;;;;;;;;;23.80;71.30;;;;;;5182021;28;19940;-83
2021/08/04 13:10:33;;;;;;;;;;;23.70;71.20;;;;;;5153427;28;19926;-88
2021/08/04 13:13:05;;;;;;;;;;;23.80;71.30;;;;;;5183620;28;19929;-88
2021/08/04 13:15:45;;;;;;;;;;;23.80;71.30;;;;;;5183043;28;19944;-85
2021/08/04 13:18:17;;;;;;;;;;;23.80;71.40;;;;;;5180460;28;19929;-84
2021/08/04 13:20:50;;;;;;;;;;;23.70;71.30;;;;;;5174856;28;20164;-86
2021/08/04 13:23:31;;;;;;;;;;;23.70;71.30;;;;;;5147840;28;19988;-86
2021/08/04 13:26:03;;;;;;;;;;;23.70;71.30;;;;;;5166358;28;20382;-84
2021/08/04 13:28:37;;;;;;;;;;;23.70;71.30;;;;;;5161961;28;19929;-86
2021/08/04 13:31:17;;;;;;;;;;;23.70;71.40;;;;;;5181819;28;19929;-86
2021/08/04 13:33:51;;;;;;;;;;;23.70;71.40;;;;;;5151726;28;20279;-86
2021/08/04 13:36:25;;;;;;;;;;;23.70;71.40;;;;;;5182784;28;20314;-88
2021/08/04 13:38:57;;;;;;;;;;;23.70;71.50;;;;;;5179626;28;19936;-84
2021/08/04 13:41:30;;;;;;;;;;;23.70;71.60;;;;;;5193028;28;19925;-86
2021/08/04 13:44:05;;;;;;;;;;;23.70;71.80;;;;;;5160665;28;19959;-88
2021/08/04 13:46:37;;;;;;;;;;;23.70;71.90;;;;;;5176540;28;19940;-84
2021/08/04 13:49:09;;;;;;;;;;;23.70;71.90;;;;;;5176150;28;19926;-86
2021/08/04 13:51:42;;;;;;;;;;;23.70;71.90;;;;;;5178694;28;19930;-83
2021/08/04 13:54:14;;;;;;;;;;;23.70;71.90;;;;;;5164783;28;19936;-85
2021/08/04 13:56:46;;;;;;;;;;;23.70;72.00;;;;;;5177917;28;19945;-89
2021/08/04 13:59:18;;;;;;;;;;;23.70;71.90;;;;;;5174971;28;19925;-87
2021/08/04 14:01:51;;;;;;;;;;;23.70;71.90;;;;;;5182775;28;19925;-86
2021/08/04 14:04:23;;;;;;;;;;;23.70;72.60;;;;;;5179681;28;19956;-87
2021/08/04 14:06:56;;;;;;;;;;;23.70;72.00;;;;;;5180255;28;19959;-86
2021/08/04 14:09:28;;;;;;;;;;;23.70;72.00;;;;;;5163309;28;19929;-86
2021/08/04 14:12:00;;;;;;;;;;;23.70;72.10;;;;;;5182016;28;20402;-85
2021/08/04 14:14:34;;;;;;;;;;;23.70;72.00;;;;;;5178043;28;19925;-85
2021/08/04 14:17:07;;;;;;;;;;;23.70;72.10;;;;;;5176250;28;19925;-88
2021/08/04 14:19:39;;;;;;;;;;;23.70;72.10;;;;;;5159336;28;19941;-86
2021/08/04 14:22:12;;;;;;;;;;;23.70;72.10;;;;;;5157312;28;19925;-85
2021/08/04 14:24:45;;;;;;;;;;;23.70;72.20;;;;;;5175874;28;20324;-84
2021/08/04 14:27:17;;;;;;;;;;;23.70;72.20;;;;;;5191820;28;19949;-85
2021/08/04 14:29:51;;;;;;;;;;;23.70;72.30;;;;;;5190201;28;20092;-85
2021/08/04 14:32:23;;;;;;;;;;;23.70;72.30;;;;;;5166363;28;20395;-85
2021/08/04 14:34:55;;;;;;;;;;;23.70;72.40;;;;;;5173807;28;20387;-84
2021/08/04 14:37:28;;;;;;;;;;;23.70;73.10;;;;;;5196190;28;20405;-87
2021/08/04 14:40:00;;;;;;;;;;;23.70;72.50;;;;;;5175532;28;19929;-86
2021/08/04 14:42:34;;;;;;;;;;;23.70;72.60;;;;;;5160392;28;19930;-87
2021/08/04 14:45:06;;;;;;;;;;;23.70;72.50;;;;;;5191603;28;19929;-84
2021/08/04 14:47:39;;;;;;;;;;;23.70;72.60;;;;;;5175985;28;19933;-84
2021/08/04 14:50:12;;;;;;;;;;;23.70;72.60;;;;;;5177132;28;19936;-84
2021/08/04 14:52:44;;;;;;;;;;;23.70;72.60;;;;;;5177453;28;20306;-84
2021/08/04 14:55:16;;;;;;;;;;;23.70;72.60;;;;;;5160804;28;19930;-84
2021/08/04 14:57:49;;;;;;;;;;;23.70;72.60;;;;;;5176751;28;20382;-88